createdAt,value
2019-06-08T00:00:08.790Z,27.85
2019-06-08T00:02:47.093Z,27.85
2019-06-08T00:05:24.886Z,28.02
2019-06-08T00:08:02.127Z,28.21
2019-06-08T00:10:40.591Z,28.22
2019-06-08T00:13:19.731Z,28.13
2019-06-08T00:15:56.967Z,28.19
2019-06-08T00:18:34.699Z,28.22
2019-06-08T00:21:13.476Z,28.42
2019-06-08T00:23:51.501Z,28.74
2019-06-08T00:26:29.282Z,28.68
2019-06-08T00:29:06.834Z,28.78
2019-06-08T00:31:44.941Z,29.13
2019-06-08T00:34:22.715Z,29.34
2019-06-08T00:37:00.049Z,29.50
2019-06-08T00:39:37.602Z,29.39
2019-06-08T00:42:17.095Z,29.14
2019-06-08T00:44:54.471Z,29.15
2019-06-08T00:47:47.086Z,29.89
2019-06-08T00:50:11.581Z,30.06
2019-06-08T00:52:49.900Z,29.89
2019-06-08T00:55:29.770Z,29.54
2019-06-08T00:58:07.526Z,29.68
2019-06-08T01:00:44.649Z,29.27
2019-06-08T01:03:23.928Z,29.16
2019-06-08T01:06:01.358Z,29.03
2019-06-08T01:08:39.510Z,29.16
2019-06-08T01:11:18.638Z,29.42
2019-06-08T01:13:56.994Z,28.82
2019-06-08T01:16:34.514Z,29.11
2019-06-08T01:19:13.501Z,29.46
2019-06-08T01:21:50.720Z,29.44
2019-06-08T01:24:29.910Z,29.40
2019-06-08T01:27:08.490Z,28.82
2019-06-08T01:29:46.495Z,28.77
2019-06-08T01:32:24.300Z,29.01
2019-06-08T01:35:02.249Z,29.08
2019-06-08T01:37:41.525Z,29.20
2019-06-08T01:40:18.953Z,29.08
2019-06-08T01:42:56.240Z,29.37
2019-06-08T01:45:34.776Z,29.41
2019-06-08T01:48:20.165Z,29.43
2019-06-08T01:50:51.999Z,29.73
2019-06-08T01:53:31.058Z,29.66
2019-06-08T01:56:11.056Z,29.79
2019-06-08T01:58:49.905Z,29.95
2019-06-08T02:01:27.825Z,30.12
2019-06-08T02:04:05.356Z,29.97
2019-06-08T02:06:43.231Z,29.75
2019-06-08T02:09:20.793Z,30.09
2019-06-08T02:11:58.855Z,30.23
2019-06-08T02:14:36.524Z,29.96
2019-06-08T02:17:15.157Z,30.11
2019-06-08T02:19:52.162Z,30.09
2019-06-08T02:22:29.444Z,30.24
2019-06-08T02:25:07.171Z,30.06
2019-06-08T02:27:45.273Z,30.44
2019-06-08T02:30:24.031Z,30.73
2019-06-08T02:33:02.408Z,31.02
2019-06-08T02:35:41.596Z,31.09
2019-06-08T02:38:19.574Z,31.13
2019-06-08T02:40:56.866Z,30.96
2019-06-08T02:43:35.684Z,30.77
2019-06-08T02:46:14.027Z,31.39
2019-06-08T02:49:03.126Z,31.58
2019-06-08T02:51:31.238Z,32.08
2019-06-08T02:54:08.826Z,31.93
2019-06-08T02:56:45.840Z,31.70
2019-06-08T02:59:25.341Z,32.26
2019-06-08T03:02:04.287Z,32.48
2019-06-08T03:04:42.857Z,32.22
2019-06-08T03:07:23.107Z,32.23
2019-06-08T03:10:01.891Z,32.10
2019-06-08T03:12:42.562Z,32.46
2019-06-08T03:15:22.713Z,32.71
2019-06-08T03:17:59.874Z,32.74
2019-06-08T03:20:39.992Z,31.63
2019-06-08T03:23:17.205Z,32.21
2019-06-08T03:25:54.704Z,32.30
2019-06-08T03:28:32.611Z,32.39
2019-06-08T03:31:10.874Z,32.62
2019-06-08T03:33:54.964Z,32.61
2019-06-08T03:36:28.442Z,32.95
2019-06-08T03:39:06.968Z,32.71
2019-06-08T03:41:45.365Z,32.74
2019-06-08T03:44:23.062Z,32.71
2019-06-08T03:47:00.669Z,32.99
2019-06-08T03:49:50.638Z,32.83
2019-06-08T03:52:18.288Z,32.14
2019-06-08T03:54:55.661Z,32.03
2019-06-08T03:57:32.930Z,31.97
2019-06-08T04:00:13.496Z,31.94
2019-06-08T04:02:51.129Z,32.14
2019-06-08T04:05:30.249Z,32.23
2019-06-08T04:08:07.871Z,32.05
2019-06-08T04:10:46.747Z,32.11
2019-06-08T04:13:24.720Z,32.19
2019-06-08T04:16:02.129Z,32.37
2019-06-08T04:18:40.703Z,32.07
2019-06-08T04:21:19.489Z,31.95
2019-06-08T04:23:57.614Z,32.20
2019-06-08T04:26:34.823Z,32.44
2019-06-08T04:29:13.667Z,32.65
2019-06-08T04:31:51.246Z,32.60
2019-06-08T04:34:29.841Z,32.71
2019-06-08T04:37:08.254Z,32.75
2019-06-08T04:39:47.014Z,32.51
2019-06-08T04:42:23.851Z,32.67
2019-06-08T04:45:01.483Z,33.05
2019-06-08T04:47:41.065Z,32.47
2019-06-08T04:50:23.391Z,33.12
2019-06-08T04:52:57.449Z,32.88
2019-06-08T04:55:35.439Z,32.94
2019-06-08T04:58:12.883Z,33.48
2019-06-08T05:00:51.135Z,33.70
2019-06-08T05:03:28.549Z,33.92
2019-06-08T05:06:06.832Z,33.97
2019-06-08T05:08:45.391Z,34.21
2019-06-08T05:11:22.787Z,33.77
2019-06-08T05:13:59.888Z,33.59
2019-06-08T05:16:39.066Z,33.73
2019-06-08T05:19:16.681Z,33.45
2019-06-08T05:21:54.868Z,33.51
2019-06-08T05:24:32.343Z,33.87
2019-06-08T05:27:10.307Z,33.21
2019-06-08T05:29:47.740Z,32.94
2019-06-08T05:32:25.042Z,33.48
2019-06-08T05:35:02.998Z,33.62
2019-06-08T05:37:41.552Z,33.60
2019-06-08T05:40:20.302Z,33.14
2019-06-08T05:42:58.034Z,33.31
2019-06-08T05:45:35.531Z,33.36
2019-06-08T05:48:13.868Z,33.30
2019-06-08T05:51:03.026Z,33.57
2019-06-08T05:53:30.552Z,33.34
2019-06-08T05:56:08.109Z,33.47
2019-06-08T05:58:46.467Z,33.78
2019-06-08T06:01:23.510Z,33.44
2019-06-08T06:04:00.420Z,33.63
2019-06-08T06:06:37.499Z,33.35
2019-06-08T06:09:15.496Z,33.63
2019-06-08T06:11:53.829Z,33.68
2019-06-08T06:14:32.029Z,34.03
2019-06-08T06:17:10.049Z,34.34
2019-06-08T06:19:49.035Z,34.35
2019-06-08T06:22:26.699Z,34.03
2019-06-08T06:25:03.660Z,34.03
2019-06-08T06:27:41.388Z,34.28
2019-06-08T06:30:21.022Z,34.58
2019-06-08T06:32:58.275Z,34.40
2019-06-08T06:35:35.732Z,34.42
2019-06-08T06:38:13.335Z,34.40
2019-06-08T06:40:52.206Z,33.98
2019-06-08T06:43:31.071Z,34.35
2019-06-08T06:46:08.957Z,34.01
2019-06-08T06:48:46.518Z,33.75
2019-06-08T06:51:26.900Z,34.06
2019-06-08T06:54:04.302Z,34.24
2019-06-08T06:56:43.107Z,33.89
2019-06-08T06:59:20.390Z,34.29
2019-06-08T07:01:59.363Z,34.37
2019-06-08T07:04:37.267Z,34.28
2019-06-08T07:07:14.803Z,34.54
2019-06-08T07:09:52.748Z,34.71
2019-06-08T07:12:30.419Z,34.57
2019-06-08T07:15:11.179Z,34.37
2019-06-08T07:17:48.489Z,34.60
2019-06-08T07:20:26.152Z,34.73
2019-06-08T07:23:04.118Z,34.61
2019-06-08T07:25:43.549Z,34.23
2019-06-08T07:28:20.591Z,34.58
2019-06-08T07:30:58.845Z,35.21
2019-06-08T07:33:37.280Z,34.66
2019-06-08T07:36:14.371Z,34.81
2019-06-08T07:38:51.468Z,35.12
2019-06-08T07:41:28.827Z,34.82
2019-06-08T07:44:06.338Z,35.10
2019-06-08T07:46:44.647Z,34.39
2019-06-08T07:49:22.017Z,34.38
2019-06-08T07:52:09.432Z,34.83
2019-06-08T07:54:39.489Z,34.71
2019-06-08T07:57:18.077Z,34.27
2019-06-08T07:59:58.429Z,33.16
2019-06-08T08:02:36.491Z,31.90
2019-06-08T08:05:15.122Z,32.97
2019-06-08T08:07:52.528Z,32.76
2019-06-08T08:10:30.642Z,33.23
2019-06-08T08:13:08.443Z,33.60
2019-06-08T08:15:47.185Z,33.77
2019-06-08T08:18:25.509Z,33.62
2019-06-08T08:21:14.353Z,33.93
2019-06-08T08:23:41.784Z,34.55
2019-06-08T08:26:19.747Z,34.48
2019-06-08T08:29:01.320Z,34.53
2019-06-08T08:31:38.174Z,34.62
2019-06-08T08:34:18.155Z,34.44
2019-06-08T08:37:01.389Z,34.71
2019-06-08T08:39:34.736Z,34.56
2019-06-08T08:42:12.395Z,34.53
2019-06-08T08:44:51.044Z,34.45
2019-06-08T08:47:30.767Z,34.19
2019-06-08T08:50:09.438Z,34.34
2019-06-08T08:52:47.713Z,34.34
2019-06-08T08:55:25.198Z,34.09
2019-06-08T08:58:03.967Z,34.12
2019-06-08T09:00:41.601Z,33.86
2019-06-08T09:03:28.696Z,33.46
2019-06-08T09:06:01.489Z,33.85
2019-06-08T09:08:38.386Z,33.80
2019-06-08T09:11:17.452Z,33.56
2019-06-08T09:13:55.539Z,33.73
2019-06-08T09:16:33.878Z,33.97
2019-06-08T09:19:12.301Z,33.52
2019-06-08T09:21:52.481Z,33.69
2019-06-08T09:24:29.907Z,33.30
2019-06-08T09:27:08.018Z,33.78
2019-06-08T09:29:48.226Z,33.59
2019-06-08T09:32:28.081Z,33.89
2019-06-08T09:35:04.997Z,33.98
2019-06-08T09:37:42.974Z,34.26
2019-06-08T09:40:21.821Z,34.07
2019-06-08T09:43:07.428Z,34.19
2019-06-08T09:45:38.345Z,34.21
2019-06-08T09:48:18.236Z,33.99
2019-06-08T09:50:57.670Z,34.11
2019-06-08T09:53:41.087Z,34.09
2019-06-08T09:56:18.549Z,34.00
2019-06-08T09:58:57.384Z,34.15
2019-06-08T10:01:38.281Z,34.16
2019-06-08T10:04:14.917Z,34.20
2019-06-08T10:06:52.306Z,34.26
2019-06-08T10:09:29.749Z,34.04
2019-06-08T10:12:09.857Z,33.68
2019-06-08T10:14:48.990Z,33.90
2019-06-08T10:17:28.235Z,34.21
2019-06-08T10:20:09.611Z,33.71
2019-06-08T10:22:49.985Z,33.29
2019-06-08T10:25:28.670Z,33.20
2019-06-08T10:28:11.283Z,33.12
2019-06-08T10:30:45.303Z,33.09
2019-06-08T10:33:23.192Z,32.89
2019-06-08T10:36:03.124Z,33.07
2019-06-08T10:38:41.294Z,32.92
2019-06-08T10:41:21.801Z,33.05
2019-06-08T10:44:01.211Z,32.89
2019-06-08T10:46:40.609Z,32.92
2019-06-08T10:49:18.683Z,33.07
2019-06-08T10:51:58.980Z,33.11
2019-06-08T10:54:37.824Z,32.98
2019-06-08T10:57:32.913Z,32.58
2019-06-08T11:00:17.971Z,32.31
2019-06-08T11:02:49.427Z,32.57
2019-06-08T11:05:28.045Z,32.75
2019-06-08T11:08:08.656Z,32.88
2019-06-08T11:10:47.385Z,32.51
2019-06-08T11:13:23.762Z,32.37
2019-06-08T11:16:02.808Z,32.61
2019-06-08T11:18:42.061Z,32.53
2019-06-08T11:21:20.131Z,32.40
2019-06-08T11:24:07.569Z,32.52
2019-06-08T11:26:40.161Z,32.38
2019-06-08T11:29:18.763Z,32.48
2019-06-08T11:31:58.663Z,32.29
2019-06-08T11:34:37.738Z,32.20
2019-06-08T11:37:20.815Z,31.80
2019-06-08T11:39:57.565Z,31.77
2019-06-08T11:42:34.778Z,31.83
2019-06-08T11:45:13.226Z,31.92
2019-06-08T11:47:51.249Z,31.75
2019-06-08T11:50:42.233Z,31.89
2019-06-08T11:53:20.269Z,31.77
2019-06-08T11:55:58.585Z,31.83
2019-06-08T11:58:38.912Z,31.62
2019-06-08T12:01:18.734Z,31.83
2019-06-08T12:03:57.936Z,31.78
2019-06-08T12:06:37.550Z,31.83
2019-06-08T12:09:14.964Z,31.96
2019-06-08T12:11:52.367Z,31.84
2019-06-08T12:14:33.537Z,31.84
2019-06-08T12:17:13.507Z,31.64
2019-06-08T12:19:49.067Z,31.60
2019-06-08T12:22:26.368Z,31.65
2019-06-08T12:25:03.910Z,31.53
2019-06-08T12:27:41.169Z,31.31
2019-06-08T12:30:25.944Z,31.27
2019-06-08T12:33:01.070Z,31.56
2019-06-08T12:35:38.606Z,31.67
2019-06-08T12:38:18.720Z,31.71
2019-06-08T12:40:58.503Z,31.92
2019-06-08T12:43:35.256Z,31.65
2019-06-08T12:46:14.373Z,31.62
2019-06-08T12:48:52.111Z,31.76
2019-06-08T12:51:30.128Z,31.65
2019-06-08T12:54:08.446Z,31.71
2019-06-08T12:56:47.933Z,31.64
2019-06-08T12:59:25.201Z,31.76
2019-06-08T13:02:03.452Z,31.50
2019-06-08T13:04:41.878Z,31.37
2019-06-08T13:07:19.200Z,31.69
2019-06-08T13:09:58.333Z,31.64
2019-06-08T13:12:35.960Z,31.36
2019-06-08T13:15:12.986Z,31.46
2019-06-08T13:17:50.876Z,31.38
2019-06-08T13:20:28.406Z,31.32
2019-06-08T13:23:08.718Z,31.15
2019-06-08T13:25:47.859Z,31.35
2019-06-08T13:28:25.640Z,31.31
2019-06-08T13:31:03.713Z,31.22
2019-06-08T13:33:41.660Z,31.30
2019-06-08T13:36:26.068Z,31.63
2019-06-08T13:38:59.440Z,31.89
2019-06-08T13:41:38.387Z,31.91
2019-06-08T13:44:16.133Z,31.80
2019-06-08T13:46:53.356Z,32.03
2019-06-08T13:49:31.809Z,32.00
2019-06-08T13:52:09.354Z,31.89
2019-06-08T13:54:48.183Z,32.06
2019-06-08T13:57:25.739Z,31.99
2019-06-08T14:00:03.522Z,31.77
2019-06-08T14:02:41.824Z,31.67
2019-06-08T14:05:28.486Z,31.84
2019-06-08T14:08:05.054Z,31.96
2019-06-08T14:10:48.134Z,31.78
2019-06-08T14:13:29.274Z,31.90
2019-06-08T14:16:04.334Z,31.79
2019-06-08T14:18:41.794Z,31.94
2019-06-08T14:21:28.014Z,31.84
2019-06-08T14:23:58.843Z,31.57
2019-06-08T14:26:37.513Z,31.66
2019-06-08T14:29:15.271Z,31.83
2019-06-08T14:31:53.440Z,31.68
2019-06-08T14:34:31.298Z,31.86
2019-06-08T14:37:09.154Z,31.57
2019-06-08T14:39:48.593Z,31.54
2019-06-08T14:42:29.894Z,31.47
2019-06-08T14:45:07.537Z,31.30
2019-06-08T14:47:47.573Z,31.47
2019-06-08T14:50:24.525Z,31.37
2019-06-08T14:53:02.375Z,31.38
2019-06-08T14:55:39.638Z,31.31
2019-06-08T14:58:18.646Z,31.46
2019-06-08T15:00:57.970Z,31.83
2019-06-08T15:03:38.071Z,31.60
2019-06-08T15:06:14.587Z,31.36
2019-06-08T15:08:53.146Z,31.44
2019-06-08T15:11:34.899Z,31.56
2019-06-08T15:14:10.581Z,31.48
2019-06-08T15:16:49.359Z,31.52
2019-06-08T15:19:29.469Z,31.52
2019-06-08T15:22:08.774Z,31.52
2019-06-08T15:24:47.872Z,31.50
2019-06-08T15:27:26.493Z,31.29
2019-06-08T15:30:04.677Z,31.36
2019-06-08T15:32:42.522Z,31.51
2019-06-08T15:35:21.064Z,31.42
2019-06-08T15:37:58.666Z,31.26
2019-06-08T15:40:37.903Z,31.47
2019-06-08T15:43:18.287Z,31.58
2019-06-08T15:45:58.955Z,31.57
2019-06-08T15:48:34.906Z,31.59
2019-06-08T15:51:12.725Z,31.63
2019-06-08T15:53:50.441Z,31.67
2019-06-08T15:56:43.168Z,31.41
2019-06-08T15:59:08.859Z,31.46
2019-06-08T16:01:47.863Z,31.33
2019-06-08T16:04:25.926Z,31.35
2019-06-08T16:07:04.197Z,30.99
2019-06-08T16:09:42.956Z,30.90
2019-06-08T16:12:20.896Z,30.80
2019-06-08T16:14:59.468Z,30.87
2019-06-08T16:17:37.016Z,30.69
2019-06-08T16:20:15.426Z,30.65
2019-06-08T16:22:54.864Z,30.67
2019-06-08T16:25:36.725Z,30.63
2019-06-08T16:28:11.285Z,30.60
2019-06-08T16:30:49.036Z,30.65
2019-06-08T16:33:27.429Z,30.62
2019-06-08T16:36:04.362Z,30.65
2019-06-08T16:38:41.233Z,30.60
2019-06-08T16:41:18.528Z,30.66
2019-06-08T16:43:56.755Z,30.66
2019-06-08T16:46:36.576Z,30.54
2019-06-08T16:49:13.875Z,30.70
2019-06-08T16:51:50.807Z,30.85
2019-06-08T16:54:30.594Z,30.84
2019-06-08T16:57:10.798Z,30.74
2019-06-08T16:59:46.820Z,30.47
2019-06-08T17:02:24.013Z,30.40
2019-06-08T17:05:02.160Z,30.29
2019-06-08T17:07:39.965Z,30.32
2019-06-08T17:10:17.404Z,30.50
2019-06-08T17:12:54.728Z,30.58
2019-06-08T17:15:34.006Z,30.57
2019-06-08T17:18:12.476Z,30.59
2019-06-08T17:20:49.411Z,30.73
2019-06-08T17:23:27.330Z,30.60
2019-06-08T17:26:05.811Z,30.71
2019-06-08T17:28:42.763Z,30.68
2019-06-08T17:31:20.504Z,30.71
2019-06-08T17:33:58.973Z,30.57
2019-06-08T17:36:36.966Z,30.42
2019-06-08T17:39:14.493Z,30.22
2019-06-08T17:41:52.514Z,30.17
2019-06-08T17:44:30.241Z,30.26
2019-06-08T17:47:08.049Z,30.33
2019-06-08T17:49:46.756Z,30.34
2019-06-08T17:52:27.250Z,30.30
2019-06-08T17:55:03.635Z,30.34
2019-06-08T17:57:52.701Z,30.33
2019-06-08T18:00:22.358Z,30.20
2019-06-08T18:03:00.611Z,30.19
2019-06-08T18:05:41.985Z,30.19
2019-06-08T18:08:18.266Z,30.11
2019-06-08T18:10:57.446Z,30.19
2019-06-08T18:13:34.308Z,30.11
2019-06-08T18:16:11.406Z,30.31
2019-06-08T18:18:50.686Z,30.36
2019-06-08T18:21:29.286Z,30.39
2019-06-08T18:24:07.781Z,30.62
2019-06-08T18:26:47.398Z,30.59
2019-06-08T18:29:27.538Z,30.50
2019-06-08T18:32:04.363Z,30.47
2019-06-08T18:34:43.373Z,30.56
2019-06-08T18:37:21.781Z,30.39
2019-06-08T18:39:59.977Z,30.28
2019-06-08T18:42:39.604Z,30.40
2019-06-08T18:45:18.285Z,30.54
2019-06-08T18:47:57.804Z,30.53
2019-06-08T18:50:35.912Z,30.56
2019-06-08T18:53:18.909Z,30.60
2019-06-08T18:55:57.978Z,30.64
2019-06-08T18:58:35.594Z,30.50
2019-06-08T19:01:13.641Z,30.49
2019-06-08T19:03:52.545Z,30.47
2019-06-08T19:06:29.845Z,30.44
2019-06-08T19:09:07.642Z,30.56
2019-06-08T19:11:48.431Z,30.61
2019-06-08T19:14:28.459Z,30.70
2019-06-08T19:17:04.527Z,30.64
2019-06-08T19:19:45.736Z,30.60
2019-06-08T19:22:21.761Z,30.63
2019-06-08T19:25:01.370Z,30.56
2019-06-08T19:27:45.135Z,30.37
2019-06-08T19:30:20.351Z,30.33
2019-06-08T19:32:58.829Z,30.20
2019-06-08T19:35:37.670Z,30.25
2019-06-08T19:38:17.987Z,30.26
2019-06-08T19:40:57.254Z,30.29
2019-06-08T19:43:34.443Z,30.40
2019-06-08T19:46:11.353Z,30.51
2019-06-08T19:48:54.560Z,30.57
2019-06-08T19:51:28.258Z,30.49
2019-06-08T19:54:07.599Z,30.35
2019-06-08T19:56:52.407Z,30.12
2019-06-08T19:59:27.480Z,30.05
2019-06-08T20:02:05.124Z,30.05
2019-06-08T20:04:44.781Z,30.16
2019-06-08T20:07:22.243Z,30.28
2019-06-08T20:10:00.869Z,30.31
2019-06-08T20:12:38.482Z,30.25
2019-06-08T20:15:18.378Z,30.26
2019-06-08T20:17:57.536Z,30.18
2019-06-08T20:20:38.012Z,30.06
2019-06-08T20:23:14.764Z,30.11
2019-06-08T20:25:53.884Z,30.17
2019-06-08T20:28:33.045Z,30.16
2019-06-08T20:31:10.434Z,30.29
2019-06-08T20:33:50.300Z,30.22
2019-06-08T20:36:28.850Z,30.23
2019-06-08T20:39:07.450Z,30.44
2019-06-08T20:41:48.196Z,30.53
2019-06-08T20:44:24.189Z,30.45
2019-06-08T20:47:03.084Z,30.35
2019-06-08T20:49:42.181Z,30.24
2019-06-08T20:52:20.025Z,30.16
2019-06-08T20:54:58.200Z,30.14
2019-06-08T20:57:38.319Z,30.22
2019-06-08T21:00:17.234Z,30.32
2019-06-08T21:03:01.768Z,30.38
2019-06-08T21:05:34.020Z,30.33
2019-06-08T21:08:13.336Z,30.33
2019-06-08T21:10:52.931Z,30.44
2019-06-08T21:13:30.157Z,30.36
2019-06-08T21:16:08.176Z,30.31
2019-06-08T21:18:47.353Z,30.12
2019-06-08T21:21:25.038Z,30.18
2019-06-08T21:24:03.082Z,30.21
2019-06-08T21:26:42.124Z,30.17
2019-06-08T21:29:20.406Z,30.12
2019-06-08T21:32:02.304Z,30.16
2019-06-08T21:34:38.947Z,30.20
2019-06-08T21:37:18.613Z,29.82
2019-06-08T21:40:03.176Z,29.80
2019-06-08T21:42:37.077Z,29.81
2019-06-08T21:45:14.351Z,29.89
2019-06-08T21:47:53.315Z,29.90
2019-06-08T21:50:31.807Z,29.94
2019-06-08T21:53:09.220Z,30.01
2019-06-08T21:55:46.514Z,29.97
2019-06-08T21:58:23.963Z,30.05
2019-06-08T22:01:03.210Z,30.09
2019-06-08T22:03:41.773Z,30.12
2019-06-08T22:06:19.478Z,30.13
2019-06-08T22:09:00.834Z,30.17
2019-06-08T22:11:37.711Z,30.10
2019-06-08T22:14:15.463Z,30.11
2019-06-08T22:16:54.175Z,30.05
2019-06-08T22:19:32.634Z,30.17
2019-06-08T22:22:11.402Z,30.24
2019-06-08T22:24:49.364Z,30.20
2019-06-08T22:27:27.638Z,30.04
2019-06-08T22:30:09.818Z,30.08
2019-06-08T22:32:47.373Z,30.14
2019-06-08T22:35:27.577Z,30.15
2019-06-08T22:38:05.200Z,30.08
2019-06-08T22:40:43.006Z,30.10
2019-06-08T22:43:22.005Z,30.17
2019-06-08T22:46:01.701Z,30.13
2019-06-08T22:48:39.372Z,30.01
2019-06-08T22:51:18.786Z,30.07
2019-06-08T22:53:58.928Z,30.01
2019-06-08T22:56:37.233Z,30.03
2019-06-08T22:59:17.490Z,30.06
2019-06-08T23:01:55.730Z,30.16
2019-06-08T23:04:34.571Z,30.27
2019-06-08T23:07:26.579Z,30.20
2019-06-08T23:09:55.012Z,30.00
2019-06-08T23:12:32.546Z,30.06
2019-06-08T23:15:11.523Z,30.19
2019-06-08T23:17:48.850Z,30.19
2019-06-08T23:20:27.626Z,30.27
2019-06-08T23:23:08.635Z,30.34
2019-06-08T23:25:47.915Z,30.40
2019-06-08T23:28:28.245Z,30.33
2019-06-08T23:31:19.782Z,30.04
2019-06-08T23:33:44.991Z,29.88
2019-06-08T23:36:46.047Z,30.01
2019-06-08T23:39:03.257Z,30.17
2019-06-08T23:41:40.933Z,30.02
2019-06-08T23:44:18.443Z,29.89
2019-06-08T23:46:58.583Z,29.77
2019-06-08T23:49:38.013Z,29.87
2019-06-08T23:52:17.798Z,30.00
2019-06-08T23:54:59.463Z,30.00
2019-06-08T23:57:38.031Z,30.00
